Time;durP1;ratioP1;P1;durP2;ratioP2;P2;SDS_P1;SDS_P2;PMS_P1;PMS_P2;Temp;Humidity;BMP_temperature;BMP_pressure;BME280_temperature;BME280_humidity;BME280_pressure;Samples;Min_cycle;Max_cycle;Signal;HPM_P1;HPM_P2
2021/12/21 00:00:45;;;;;;;;;;;4.40;87.60;;;;;;5033903;28;19974;-77
2021/12/21 00:03:11;;;;;;;;;;;4.40;87.60;;;;;;5036536;28;20014;-77
2021/12/21 00:05:37;;;;;;;;;;;4.50;87.50;;;;;;5037715;28;19999;-77
2021/12/21 00:08:04;;;;;;;;;;;4.40;87.30;;;;;;5036844;28;19944;-77
2021/12/21 00:10:31;;;;;;;;;;;4.40;87.30;;;;;;5037764;28;19952;-77
2021/12/21 00:15:40;;;;;;;;;;;4.50;87.20;;;;;;5034696;28;19920;-77
2021/12/21 00:25:41;;;;;;;;;;;4.40;86.60;;;;;;5037179;28;19962;-77
2021/12/21 00:28:07;;;;;;;;;;;4.50;86.70;;;;;;5036940;28;19921;-77
2021/12/21 00:30:33;;;;;;;;;;;4.40;86.80;;;;;;5036130;28;20043;-77
2021/12/21 00:32:58;;;;;;;;;;;4.50;86.80;;;;;;5037227;28;19959;-77
2021/12/21 00:35:24;;;;;;;;;;;4.50;86.70;;;;;;5035559;28;20368;-77
2021/12/21 00:37:50;;;;;;;;;;;4.40;86.80;;;;;;5037200;28;20368;-78
2021/12/21 00:40:16;;;;;;;;;;;4.50;86.70;;;;;;5036157;28;19919;-77
2021/12/21 00:42:41;;;;;;;;;;;4.40;86.70;;;;;;5037305;28;19995;-77
2021/12/21 00:45:07;;;;;;;;;;;4.40;86.50;;;;;;5037516;28;19909;-77
2021/12/21 00:47:35;;;;;;;;;;;4.40;86.50;;;;;;5036336;28;19916;-77
2021/12/21 00:50:03;;;;;;;;;;;4.40;86.40;;;;;;5037450;28;19909;-77
2021/12/21 00:52:29;;;;;;;;;;;4.40;86.30;;;;;;5036711;28;19940;-77
2021/12/21 00:54:55;;;;;;;;;;;4.40;86.20;;;;;;5035495;28;20367;-77
2021/12/21 00:57:21;;;;;;;;;;;4.40;86.30;;;;;;5036270;28;20015;-79
2021/12/21 00:59:47;;;;;;;;;;;4.40;86.40;;;;;;5037462;28;19905;-78
2021/12/21 01:02:13;;;;;;;;;;;4.40;86.40;;;;;;5035624;28;20132;-79
2021/12/21 01:04:44;;;;;;;;;;;4.40;86.60;;;;;;5037066;28;19909;-78
2021/12/21 01:12:05;;;;;;;;;;;4.40;86.70;;;;;;5037656;28;19905;-78
2021/12/21 01:17:23;;;;;;;;;;;4.40;86.50;;;;;;5030001;28;19909;-78
2021/12/21 01:20:01;;;;;;;;;;;4.40;86.30;;;;;;5034593;28;19909;-79
2021/12/21 01:27:33;;;;;;;;;;;4.40;86.10;;;;;;5036799;28;20268;-79
2021/12/21 01:30:15;;;;;;;;;;;4.40;86.10;;;;;;5025346;28;19912;-79
2021/12/21 01:35:38;;;;;;;;;;;4.40;86.00;;;;;;5026983;28;19905;-79
2021/12/21 01:38:15;;;;;;;;;;;4.40;85.90;;;;;;5037008;28;20368;-78
2021/12/21 01:40:50;;;;;;;;;;;4.40;86.10;;;;;;5033895;28;19963;-79
2021/12/21 01:43:39;;;;;;;;;;;4.40;86.00;;;;;;5037154;28;19905;-79
2021/12/21 01:51:32;;;;;;;;;;;4.40;85.90;;;;;;5036819;28;19963;-79
2021/12/21 01:53:58;;;;;;;;;;;4.40;85.90;;;;;;5034276;28;19909;-79
2021/12/21 01:56:24;;;;;;;;;;;4.30;85.90;;;;;;5036585;28;19912;-79
2021/12/21 01:58:50;;;;;;;;;;;4.30;86.00;;;;;;5039526;28;19908;-79
2021/12/21 02:01:16;;;;;;;;;;;4.30;85.90;;;;;;5040681;28;19905;-79
2021/12/21 02:03:47;;;;;;;;;;;4.20;85.80;;;;;;5039668;28;19935;-79
2021/12/21 02:06:13;;;;;;;;;;;4.10;85.80;;;;;;5040156;28;19916;-79
2021/12/21 02:08:39;;;;;;;;;;;4.00;85.90;;;;;;5040238;28;19905;-79
2021/12/21 02:11:04;;;;;;;;;;;3.90;86.00;;;;;;5026136;28;19996;-79
2021/12/21 02:13:33;;;;;;;;;;;3.80;86.10;;;;;;5038697;28;19932;-79
2021/12/21 02:15:59;;;;;;;;;;;3.70;86.30;;;;;;5034125;28;19975;-79
2021/12/21 02:21:02;;;;;;;;;;;3.60;86.70;;;;;;5040334;28;20276;-79
2021/12/21 02:23:34;;;;;;;;;;;3.50;86.70;;;;;;5040432;28;19911;-79
2021/12/21 02:28:46;;;;;;;;;;;3.40;86.70;;;;;;5039784;28;19909;-79
2021/12/21 02:31:11;;;;;;;;;;;3.30;86.80;;;;;;5040208;28;19912;-79
2021/12/21 02:33:37;;;;;;;;;;;3.30;86.90;;;;;;5040088;28;19905;-79
2021/12/21 02:36:03;;;;;;;;;;;3.20;86.80;;;;;;5039578;28;19913;-79
2021/12/21 02:38:29;;;;;;;;;;;3.20;87.10;;;;;;5040059;28;19909;-78
2021/12/21 02:40:55;;;;;;;;;;;3.10;87.20;;;;;;5037984;28;20000;-79
2021/12/21 02:43:21;;;;;;;;;;;3.10;87.10;;;;;;5038700;28;19972;-79
2021/12/21 02:45:47;;;;;;;;;;;3.00;87.00;;;;;;5039691;28;19909;-79
2021/12/21 02:48:12;;;;;;;;;;;3.00;87.00;;;;;;5039691;28;19911;-79
2021/12/21 02:50:39;;;;;;;;;;;2.90;86.90;;;;;;5039724;28;19912;-79
2021/12/21 02:53:05;;;;;;;;;;;2.80;86.90;;;;;;5039796;28;19912;-79
2021/12/21 02:55:31;;;;;;;;;;;2.80;86.90;;;;;;5039620;28;20391;-79
2021/12/21 02:57:57;;;;;;;;;;;2.70;86.80;;;;;;5039298;28;19912;-79
2021/12/21 03:00:26;;;;;;;;;;;2.70;86.80;;;;;;5039879;28;19999;-79
2021/12/21 03:02:52;;;;;;;;;;;2.60;86.80;;;;;;5039560;28;19912;-79
2021/12/21 03:05:19;;;;;;;;;;;2.50;86.80;;;;;;5039590;28;19905;-79
2021/12/21 03:10:15;;;;;;;;;;;2.40;86.80;;;;;;5035235;28;19969;-79
2021/12/21 03:15:21;;;;;;;;;;;2.30;86.80;;;;;;5027712;28;19995;-79
2021/12/21 03:17:47;;;;;;;;;;;2.20;86.70;;;;;;5038656;28;19913;-79
2021/12/21 03:20:13;;;;;;;;;;;2.20;86.80;;;;;;5038644;28;20300;-79
2021/12/21 03:22:39;;;;;;;;;;;2.10;87.40;;;;;;5039146;28;19905;-79
2021/12/21 03:25:05;;;;;;;;;;;2.10;86.80;;;;;;5038977;28;19927;-79
2021/12/21 03:27:31;;;;;;;;;;;2.00;86.70;;;;;;5039217;28;20359;-79
2021/12/21 03:29:56;;;;;;;;;;;1.90;86.70;;;;;;5039084;28;19933;-79
2021/12/21 03:32:22;;;;;;;;;;;1.90;86.80;;;;;;5039034;28;19909;-79
2021/12/21 03:34:48;;;;;;;;;;;1.90;86.80;;;;;;5038518;28;19912;-79
2021/12/21 03:37:14;;;;;;;;;;;1.80;87.30;;;;;;5030175;28;20388;-79
2021/12/21 03:39:41;;;;;;;;;;;1.70;86.70;;;;;;5038653;28;19909;-79
2021/12/21 03:42:07;;;;;;;;;;;1.70;86.70;;;;;;5034490;28;19917;-79
2021/12/21 03:44:33;;;;;;;;;;;1.60;86.70;;;;;;5038793;28;20525;-79
2021/12/21 03:46:58;;;;;;;;;;;1.60;86.80;;;;;;5038264;28;19931;-79
2021/12/21 03:51:57;;;;;;;;;;;1.50;86.80;;;;;;5038534;28;19948;-79
2021/12/21 03:54:23;;;;;;;;;;;1.50;86.80;;;;;;5038688;28;20364;-79
2021/12/21 03:56:50;;;;;;;;;;;1.40;86.80;;;;;;5038254;28;19952;-79
2021/12/21 03:59:17;;;;;;;;;;;1.40;86.90;;;;;;5038593;28;19909;-79
2021/12/21 04:01:43;;;;;;;;;;;1.30;87.50;;;;;;5038529;28;19969;-80
2021/12/21 04:04:08;;;;;;;;;;;1.30;86.90;;;;;;5037378;28;20384;-80
2021/12/21 04:06:35;;;;;;;;;;;1.20;86.90;;;;;;5037750;28;19932;-79
2021/12/21 04:09:01;;;;;;;;;;;1.20;87.00;;;;;;5025506;28;19905;-79
2021/12/21 04:11:27;;;;;;;;;;;1.10;86.90;;;;;;5038439;28;20368;-79
2021/12/21 04:13:52;;;;;;;;;;;1.10;87.00;;;;;;5033708;28;19906;-79
2021/12/21 04:16:18;;;;;;;;;;;1.10;87.00;;;;;;5029441;28;19909;-79
2021/12/21 04:18:43;;;;;;;;;;;1.00;87.00;;;;;;5037942;28;19913;-79
2021/12/21 04:21:12;;;;;;;;;;;1.00;87.10;;;;;;5037142;28;19948;-79
2021/12/21 04:23:38;;;;;;;;;;;1.00;87.70;;;;;;5038088;28;19905;-79
2021/12/21 04:26:04;;;;;;;;;;;0.90;87.10;;;;;;5037714;28;20314;-79
2021/12/21 04:28:29;;;;;;;;;;;0.90;87.10;;;;;;5038234;28;19984;-79
2021/12/21 04:30:55;;;;;;;;;;;0.90;87.10;;;;;;5036918;28;19916;-79
2021/12/21 04:33:21;;;;;;;;;;;0.80;87.00;;;;;;5038151;28;19905;-79
2021/12/21 04:35:46;;;;;;;;;;;0.80;87.10;;;;;;5037626;28;19912;-79
2021/12/21 04:38:20;;;;;;;;;;;0.80;87.20;;;;;;5037171;28;19920;-79
2021/12/21 04:40:49;;;;;;;;;;;0.70;87.20;;;;;;5031619;28;19953;-79
2021/12/21 04:43:15;;;;;;;;;;;0.70;87.20;;;;;;5036116;28;20278;-79
2021/12/21 04:45:41;;;;;;;;;;;0.70;87.30;;;;;;5038044;28;19963;-79
2021/12/21 04:48:06;;;;;;;;;;;0.60;87.20;;;;;;5037416;28;19956;-79
2021/12/21 04:50:33;;;;;;;;;;;0.60;87.30;;;;;;5037419;28;19913;-79
2021/12/21 04:52:58;;;;;;;;;;;0.60;87.30;;;;;;5036386;28;19905;-79
2021/12/21 04:55:24;;;;;;;;;;;0.50;87.30;;;;;;5037392;28;20280;-79
2021/12/21 04:57:50;;;;;;;;;;;0.50;87.30;;;;;;5035956;28;19913;-79
2021/12/21 05:00:16;;;;;;;;;;;0.50;87.40;;;;;;5037801;28;19913;-79
2021/12/21 05:02:41;;;;;;;;;;;0.50;87.50;;;;;;5037515;28;19905;-80
2021/12/21 05:05:07;;;;;;;;;;;0.50;87.50;;;;;;5037466;28;19913;-80
2021/12/21 05:07:35;;;;;;;;;;;0.40;87.50;;;;;;5036669;28;19909;-80
2021/12/21 05:10:02;;;;;;;;;;;0.40;87.50;;;;;;5037029;28;19959;-80
2021/12/21 05:12:28;;;;;;;;;;;0.40;87.60;;;;;;5037447;28;19929;-80
2021/12/21 05:14:54;;;;;;;;;;;0.40;87.60;;;;;;5037474;28;20311;-80
2021/12/21 05:17:20;;;;;;;;;;;0.30;87.60;;;;;;5037298;28;19909;-80
2021/12/21 05:19:46;;;;;;;;;;;0.30;87.70;;;;;;5037423;28;19916;-80
2021/12/21 05:22:12;;;;;;;;;;;0.30;88.30;;;;;;5037450;28;19905;-80
2021/12/21 05:24:38;;;;;;;;;;;0.30;87.80;;;;;;5037140;28;19905;-80
2021/12/21 05:27:04;;;;;;;;;;;0.20;87.80;;;;;;5033710;28;19916;-80
2021/12/21 05:29:31;;;;;;;;;;;0.20;87.80;;;;;;5037352;28;19905;-80
2021/12/21 05:32:00;;;;;;;;;;;0.20;87.90;;;;;;5046952;28;19914;-81
2021/12/21 05:34:27;;;;;;;;;;;0.20;87.90;;;;;;5043755;28;19932;-81
2021/12/21 05:36:53;;;;;;;;;;;0.20;88.00;;;;;;5041134;28;20376;-81
2021/12/21 05:39:22;;;;;;;;;;;0.10;88.00;;;;;;5049061;28;19920;-81
2021/12/21 05:41:54;;;;;;;;;;;0.10;88.00;;;;;;5040792;28;20043;-81
2021/12/21 05:44:21;;;;;;;;;;;0.10;88.00;;;;;;5040879;28;19905;-81
2021/12/21 05:46:48;;;;;;;;;;;0.10;88.00;;;;;;5040911;28;19905;-81
2021/12/21 05:49:14;;;;;;;;;;;0.10;88.00;;;;;;5040461;28;20013;-81
2021/12/21 05:51:39;;;;;;;;;;;0.00;87.90;;;;;;5040147;28;19913;-81
2021/12/21 05:54:05;;;;;;;;;;;0.00;87.90;;;;;;5040757;28;19905;-81
2021/12/21 05:56:31;;;;;;;;;;;0.00;88.00;;;;;;5043524;28;20372;-81
2021/12/21 05:58:57;;;;;;;;;;;0.00;88.00;;;;;;5043262;28;20005;-81
2021/12/21 06:01:23;;;;;;;;;;;0.00;88.00;;;;;;5052422;28;19959;-81
2021/12/21 06:03:48;;;;;;;;;;;0.00;88.40;;;;;;5047699;28;19909;-81
2021/12/21 06:06:16;;;;;;;;;;;0.00;88.70;;;;;;5048416;28;19912;-81
2021/12/21 06:08:43;;;;;;;;;;;0.00;88.80;;;;;;5040806;28;19909;-81
2021/12/21 06:11:09;;;;;;;;;;;0.00;88.80;;;;;;5040700;28;19905;-81
2021/12/21 06:14:01;;;;;;;;;;;0.00;88.80;;;;;;5038969;28;19924;-81
2021/12/21 06:27:17;;;;;;;;;;;-0.10;88.60;;;;;;5040028;28;20057;-81
2021/12/21 06:29:43;;;;;;;;;;;-0.10;88.50;;;;;;5040520;28;19909;-80
2021/12/21 06:32:09;;;;;;;;;;;-0.10;88.40;;;;;;5040218;28;19905;-81
2021/12/21 06:34:35;;;;;;;;;;;-0.20;88.40;;;;;;5038784;28;19931;-81
2021/12/21 06:37:01;;;;;;;;;;;-0.20;88.40;;;;;;5040195;28;20082;-81
2021/12/21 06:39:28;;;;;;;;;;;-0.20;88.40;;;;;;5039640;28;19917;-81
2021/12/21 06:41:53;;;;;;;;;;;-0.20;88.50;;;;;;5039703;28;20292;-81
2021/12/21 06:44:19;;;;;;;;;;;-0.20;88.60;;;;;;5039008;28;19912;-81
2021/12/21 06:51:08;;;;;;;;;;;-0.20;88.60;;;;;;5039939;28;19905;-81
2021/12/21 06:52:16;;;;;;;;;;;-0.20;88.50;;;;;;5040133;28;20318;-81
2021/12/21 06:54:41;;;;;;;;;;;-0.30;88.60;;;;;;5039676;28;20004;-81
2021/12/21 06:57:07;;;;;;;;;;;-0.30;88.80;;;;;;5039553;28;19909;-81
2021/12/21 06:59:33;;;;;;;;;;;-0.30;89.30;;;;;;5038344;28;19917;-81
2021/12/21 07:01:59;;;;;;;;;;;-0.20;89.60;;;;;;5037718;28;20291;-81
2021/12/21 07:04:24;;;;;;;;;;;-0.20;89.50;;;;;;5038612;28;20282;-81
2021/12/21 07:06:52;;;;;;;;;;;-0.20;89.50;;;;;;5038858;28;19909;-81
2021/12/21 07:09:59;;;;;;;;;;;-0.30;89.40;;;;;;5039124;28;19916;-81
2021/12/21 07:20:00;;;;;;;;;;;-0.30;89.00;;;;;;5039261;28;20291;-81
2021/12/21 07:22:26;;;;;;;;;;;-0.30;88.90;;;;;;5038875;28;19905;-81
2021/12/21 07:24:52;;;;;;;;;;;-0.30;88.80;;;;;;5038196;28;19905;-81
2021/12/21 07:27:17;;;;;;;;;;;-0.40;88.80;;;;;;5038766;28;19917;-81
2021/12/21 07:29:43;;;;;;;;;;;-0.40;88.80;;;;;;5037776;28;19955;-81
2021/12/21 07:32:08;;;;;;;;;;;-0.40;88.80;;;;;;5038666;28;19916;-81
2021/12/21 07:34:34;;;;;;;;;;;-0.40;88.80;;;;;;5038864;28;19928;-81
2021/12/21 07:37:00;;;;;;;;;;;-0.40;88.80;;;;;;5038561;28;19916;-81
2021/12/21 07:39:26;;;;;;;;;;;-0.40;88.80;;;;;;5038937;28;20015;-81
2021/12/21 07:41:52;;;;;;;;;;;-0.40;88.80;;;;;;5035075;28;20004;-81
2021/12/21 07:44:17;;;;;;;;;;;-0.40;88.80;;;;;;5038920;28;19953;-81
2021/12/21 07:46:43;;;;;;;;;;;-0.50;88.80;;;;;;5037222;28;19913;-81
2021/12/21 07:49:09;;;;;;;;;;;-0.50;88.80;;;;;;5038930;28;19913;-82
2021/12/21 07:51:35;;;;;;;;;;;-0.50;88.90;;;;;;5038443;28;19995;-82
2021/12/21 07:54:00;;;;;;;;;;;-0.50;89.20;;;;;;5038502;28;19905;-82
2021/12/21 07:56:26;;;;;;;;;;;-0.50;89.20;;;;;;5038242;28;19905;-82
2021/12/21 07:58:52;;;;;;;;;;;-0.50;89.10;;;;;;5038258;28;19913;-82
2021/12/21 08:01:18;;;;;;;;;;;-0.50;89.10;;;;;;5036451;28;19949;-82
2021/12/21 08:03:44;;;;;;;;;;;-0.50;89.10;;;;;;5041710;28;19913;-82
2021/12/21 08:06:12;;;;;;;;;;;-0.50;89.10;;;;;;5041904;28;20367;-82
2021/12/21 08:08:41;;;;;;;;;;;-0.50;89.10;;;;;;5038055;28;19958;-82
2021/12/21 08:13:40;;;;;;;;;;;-0.50;89.30;;;;;;5036930;28;19912;-82
2021/12/21 08:16:06;;;;;;;;;;;-0.50;89.30;;;;;;5037919;28;20606;-82
2021/12/21 08:18:32;;;;;;;;;;;-0.50;89.40;;;;;;5037308;28;20058;-82
2021/12/21 08:20:58;;;;;;;;;;;-0.40;89.50;;;;;;5038031;28;19905;-82
2021/12/21 08:23:23;;;;;;;;;;;-0.40;89.60;;;;;;5037848;28;19917;-82
2021/12/21 08:25:49;;;;;;;;;;;-0.40;89.50;;;;;;5038147;28;19944;-82
2021/12/21 08:28:15;;;;;;;;;;;-0.40;89.50;;;;;;5036519;28;19932;-82
2021/12/21 08:30:40;;;;;;;;;;;-0.40;89.40;;;;;;5036866;28;19912;-82
2021/12/21 08:33:06;;;;;;;;;;;-0.40;89.60;;;;;;5036979;28;20062;-82
2021/12/21 08:35:32;;;;;;;;;;;-0.40;89.60;;;;;;5038178;28;19944;-82
2021/12/21 08:38:05;;;;;;;;;;;-0.40;89.60;;;;;;5036186;28;19995;-82
2021/12/21 08:40:38;;;;;;;;;;;-0.30;89.60;;;;;;5033798;28;20411;-83
2021/12/21 08:43:08;;;;;;;;;;;-0.30;90.10;;;;;;5034806;28;19915;-83
2021/12/21 08:45:36;;;;;;;;;;;-0.30;89.60;;;;;;5038187;28;20268;-83
2021/12/21 08:48:02;;;;;;;;;;;-0.20;89.70;;;;;;5036693;28;19909;-83
2021/12/21 08:50:28;;;;;;;;;;;-0.20;89.70;;;;;;5036605;28;19909;-83
2021/12/21 08:52:54;;;;;;;;;;;-0.20;89.70;;;;;;5037113;28;20436;-83
2021/12/21 08:55:20;;;;;;;;;;;-0.20;89.80;;;;;;5037500;28;19909;-83
2021/12/21 08:57:46;;;;;;;;;;;-0.20;89.90;;;;;;5035609;28;19908;-83
2021/12/21 09:00:12;;;;;;;;;;;-0.10;90.10;;;;;;5037260;28;20300;-83
2021/12/21 09:02:38;;;;;;;;;;;-0.10;90.10;;;;;;5032781;28;19909;-82
2021/12/21 09:05:07;;;;;;;;;;;0.00;90.10;;;;;;5036865;28;19909;-82
2021/12/21 09:07:34;;;;;;;;;;;0.00;90.10;;;;;;5039743;28;19909;-83
2021/12/21 09:10:00;;;;;;;;;;;0.10;90.20;;;;;;5041098;28;20968;-81
2021/12/21 09:12:25;;;;;;;;;;;0.10;90.20;;;;;;5044185;28;19909;-81
2021/12/21 09:14:51;;;;;;;;;;;0.20;90.20;;;;;;5032387;28;19928;-81
2021/12/21 09:17:16;;;;;;;;;;;0.20;90.30;;;;;;5039429;28;20393;-81
2021/12/21 09:19:42;;;;;;;;;;;0.30;90.30;;;;;;5040145;28;19980;-81
2021/12/21 09:22:08;;;;;;;;;;;0.30;90.40;;;;;;5043859;28;19909;-82
2021/12/21 09:24:33;;;;;;;;;;;0.40;90.50;;;;;;5043200;28;19912;-82
2021/12/21 09:26:59;;;;;;;;;;;0.50;90.70;;;;;;5043105;28;19909;-82
2021/12/21 09:29:25;;;;;;;;;;;0.50;90.80;;;;;;5040663;28;19905;-82
2021/12/21 09:31:50;;;;;;;;;;;0.60;91.00;;;;;;5043118;28;19916;-82
2021/12/21 09:34:16;;;;;;;;;;;0.80;91.20;;;;;;5043716;28;19909;-82
2021/12/21 09:36:41;;;;;;;;;;;0.90;91.40;;;;;;5042524;28;19912;-81
2021/12/21 09:39:07;;;;;;;;;;;1.10;91.60;;;;;;5042502;28;19932;-81
2021/12/21 09:41:33;;;;;;;;;;;1.40;91.70;;;;;;5042970;28;19917;-81
2021/12/21 09:43:59;;;;;;;;;;;1.60;91.70;;;;;;5042113;28;20011;-81
2021/12/21 09:46:25;;;;;;;;;;;1.90;91.70;;;;;;5044005;28;20380;-81
2021/12/21 09:48:51;;;;;;;;;;;2.10;91.60;;;;;;5042386;28;19959;-81
2021/12/21 09:51:16;;;;;;;;;;;2.30;91.80;;;;;;5042598;28;19978;-81
2021/12/21 09:53:43;;;;;;;;;;;2.70;92.00;;;;;;5043687;28;19909;-81
2021/12/21 09:56:08;;;;;;;;;;;3.00;91.80;;;;;;5043700;28;19927;-81
2021/12/21 09:58:34;;;;;;;;;;;3.30;91.60;;;;;;5043577;28;20360;-80
2021/12/21 10:01:00;;;;;;;;;;;3.40;91.40;;;;;;5041967;28;20410;-80
2021/12/21 10:03:25;;;;;;;;;;;3.60;91.20;;;;;;5043372;28;19909;-80
2021/12/21 10:06:01;;;;;;;;;;;3.70;91.10;;;;;;5042658;28;19908;-80
2021/12/21 10:08:29;;;;;;;;;;;3.90;90.90;;;;;;5042706;28;19909;-81
2021/12/21 10:10:55;;;;;;;;;;;4.10;90.70;;;;;;5039812;28;19916;-81
2021/12/21 10:13:24;;;;;;;;;;;4.30;90.40;;;;;;5043401;28;20439;-80
2021/12/21 10:15:54;;;;;;;;;;;4.50;90.40;;;;;;5038005;28;19911;-80
2021/12/21 10:18:23;;;;;;;;;;;4.80;90.70;;;;;;5043016;28;20323;-81
2021/12/21 10:20:48;;;;;;;;;;;5.30;90.80;;;;;;5038475;28;20423;-79
2021/12/21 10:23:14;;;;;;;;;;;5.70;90.60;;;;;;5040072;28;19909;-79
2021/12/21 10:25:41;;;;;;;;;;;6.10;90.30;;;;;;5037195;28;19909;-78
2021/12/21 10:28:07;;;;;;;;;;;6.50;90.00;;;;;;5040481;28;20312;-83
2021/12/21 10:30:32;;;;;;;;;;;7.00;89.50;;;;;;5039609;28;19913;-79
2021/12/21 10:33:00;;;;;;;;;;;7.30;88.50;;;;;;5042297;28;19909;-77
2021/12/21 10:35:30;;;;;;;;;;;7.70;87.10;;;;;;5039672;28;19909;-77
2021/12/21 10:37:56;;;;;;;;;;;7.90;85.80;;;;;;5039483;28;20368;-78
2021/12/21 10:40:26;;;;;;;;;;;8.10;84.80;;;;;;5037315;28;19916;-78
2021/12/21 10:43:00;;;;;;;;;;;8.50;83.90;;;;;;5039064;28;19912;-78
2021/12/21 10:45:27;;;;;;;;;;;8.80;83.30;;;;;;5039675;28;19909;-77
2021/12/21 10:47:53;;;;;;;;;;;9.20;83.10;;;;;;5042797;28;19916;-78
2021/12/21 10:50:19;;;;;;;;;;;9.60;81.60;;;;;;5039156;28;19909;-79
2021/12/21 10:52:49;;;;;;;;;;;9.90;80.00;;;;;;5039367;28;19916;-78
2021/12/21 10:55:15;;;;;;;;;;;10.10;78.50;;;;;;5038090;28;19909;-76
2021/12/21 10:57:41;;;;;;;;;;;10.40;78.60;;;;;;5037928;28;20406;-75
2021/12/21 11:00:09;;;;;;;;;;;10.80;77.00;;;;;;5039248;28;20380;-74
2021/12/21 11:02:35;;;;;;;;;;;11.10;76.70;;;;;;5035582;28;19913;-74
2021/12/21 11:05:03;;;;;;;;;;;11.40;76.60;;;;;;5039006;28;19963;-75
2021/12/21 11:07:51;;;;;;;;;;;11.60;75.40;;;;;;5037441;28;19908;-76
2021/12/21 11:10:25;;;;;;;;;;;11.90;74.80;;;;;;5036805;28;19909;-76
2021/12/21 11:12:52;;;;;;;;;;;12.20;74.20;;;;;;5038843;28;20331;-76
2021/12/21 11:15:20;;;;;;;;;;;12.40;72.80;;;;;;5036597;28;20371;-76
2021/12/21 11:17:46;;;;;;;;;;;12.60;72.00;;;;;;5039579;28;19927;-76
2021/12/21 11:20:12;;;;;;;;;;;12.60;69.30;;;;;;5035293;28;20094;-76
2021/12/21 11:22:39;;;;;;;;;;;12.70;70.40;;;;;;5038123;28;19916;-76
2021/12/21 11:25:05;;;;;;;;;;;12.80;69.00;;;;;;5037186;28;19909;-76
2021/12/21 11:27:32;;;;;;;;;;;12.90;68.30;;;;;;5038322;28;19991;-77
2021/12/21 11:30:01;;;;;;;;;;;12.90;67.10;;;;;;5038002;28;19908;-77
2021/12/21 11:32:29;;;;;;;;;;;13.00;68.80;;;;;;5036227;28;19909;-77
2021/12/21 11:37:43;;;;;;;;;;;13.20;66.30;;;;;;5037891;28;20326;-77
2021/12/21 11:40:12;;;;;;;;;;;13.20;64.60;;;;;;5035791;28;19909;-77
2021/12/21 11:42:50;;;;;;;;;;;13.00;64.20;;;;;;5033422;28;19905;-75
2021/12/21 11:45:20;;;;;;;;;;;13.00;65.20;;;;;;5037540;28;19924;-74
2021/12/21 11:47:55;;;;;;;;;;;13.00;64.80;;;;;;5038587;28;19905;-78
2021/12/21 11:50:21;;;;;;;;;;;13.10;63.40;;;;;;5037520;28;19909;-77
2021/12/21 11:52:48;;;;;;;;;;;13.20;64.60;;;;;;5036514;28;19915;-77
2021/12/21 11:55:15;;;;;;;;;;;13.30;63.80;;;;;;5037654;28;19916;-76
2021/12/21 11:57:51;;;;;;;;;;;13.30;63.80;;;;;;5035193;28;19996;-76
2021/12/21 12:00:17;;;;;;;;;;;13.40;63.90;;;;;;5037607;28;20360;-76
2021/12/21 12:02:43;;;;;;;;;;;13.50;62.70;;;;;;5041759;28;19916;-75
2021/12/21 12:05:15;;;;;;;;;;;13.60;62.00;;;;;;5040522;28;19913;-76
2021/12/21 12:07:41;;;;;;;;;;;13.60;61.60;;;;;;5037259;28;19908;-76
2021/12/21 12:10:09;;;;;;;;;;;13.50;61.40;;;;;;5035156;28;19952;-77
2021/12/21 12:12:34;;;;;;;;;;;13.40;62.30;;;;;;5037040;28;19955;-77
2021/12/21 12:15:01;;;;;;;;;;;13.50;63.40;;;;;;5034812;28;19909;-76
2021/12/21 12:17:28;;;;;;;;;;;13.60;62.90;;;;;;5038304;28;19994;-77
2021/12/21 12:19:57;;;;;;;;;;;13.60;63.40;;;;;;5037768;28;19912;-77
2021/12/21 12:22:52;;;;;;;;;;;13.70;62.90;;;;;;5038278;28;19956;-76
2021/12/21 12:25:18;;;;;;;;;;;13.80;62.00;;;;;;5021088;28;19955;-76
2021/12/21 12:27:45;;;;;;;;;;;13.90;62.60;;;;;;5038042;28;19909;-77
2021/12/21 12:30:12;;;;;;;;;;;14.00;62.20;;;;;;5036388;28;20023;-76
2021/12/21 12:32:39;;;;;;;;;;;14.00;62.00;;;;;;5036247;28;19905;-77
2021/12/21 12:35:06;;;;;;;;;;;14.10;60.50;;;;;;5037511;28;19909;-76
2021/12/21 12:37:32;;;;;;;;;;;14.10;61.30;;;;;;5037010;28;20011;-76
2021/12/21 12:40:09;;;;;;;;;;;14.10;61.90;;;;;;5036547;28;19960;-76
2021/12/21 12:42:35;;;;;;;;;;;14.00;60.60;;;;;;5033358;28;19913;-78
2021/12/21 12:45:04;;;;;;;;;;;13.80;59.70;;;;;;5037696;28;19964;-75
2021/12/21 12:47:31;;;;;;;;;;;13.60;58.80;;;;;;5037452;28;19909;-77
2021/12/21 12:49:56;;;;;;;;;;;13.30;60.00;;;;;;5036212;28;19952;-77
2021/12/21 12:52:27;;;;;;;;;;;13.10;59.90;;;;;;5035061;28;19916;-77
2021/12/21 12:54:53;;;;;;;;;;;13.00;61.30;;;;;;5035938;28;20292;-77
2021/12/21 12:57:30;;;;;;;;;;;13.00;62.10;;;;;;5037040;28;19905;-77
2021/12/21 12:59:57;;;;;;;;;;;12.90;61.00;;;;;;5037361;28;19909;-78
2021/12/21 13:02:24;;;;;;;;;;;12.90;61.50;;;;;;5036340;28;19905;-77
2021/12/21 13:04:50;;;;;;;;;;;12.90;63.20;;;;;;5037287;28;19905;-77
2021/12/21 13:07:26;;;;;;;;;;;12.90;63.00;;;;;;5037587;28;19988;-77
2021/12/21 13:09:59;;;;;;;;;;;12.90;62.80;;;;;;5037325;28;19991;-77
2021/12/21 13:12:25;;;;;;;;;;;12.80;60.00;;;;;;5037555;28;20271;-77
2021/12/21 13:14:54;;;;;;;;;;;12.70;60.20;;;;;;5033484;28;19937;-81
2021/12/21 13:17:20;;;;;;;;;;;12.40;59.90;;;;;;5036616;28;19909;-78
2021/12/21 13:19:45;;;;;;;;;;;12.20;60.60;;;;;;5029573;28;19909;-81
2021/12/21 13:22:11;;;;;;;;;;;12.10;61.80;;;;;;5033069;28;19905;-78
2021/12/21 13:24:42;;;;;;;;;;;12.00;62.00;;;;;;5034468;28;19938;-78
2021/12/21 13:27:09;;;;;;;;;;;11.90;61.60;;;;;;5034331;28;19905;-80
2021/12/21 13:29:35;;;;;;;;;;;11.80;60.90;;;;;;5035910;28;20447;-80
2021/12/21 13:32:11;;;;;;;;;;;11.60;61.30;;;;;;5036385;28;19975;-81
2021/12/21 13:34:39;;;;;;;;;;;11.50;62.40;;;;;;5035847;28;19955;-80
2021/12/21 13:37:09;;;;;;;;;;;11.40;62.40;;;;;;5033167;28;19911;-80
2021/12/21 13:39:36;;;;;;;;;;;11.30;62.30;;;;;;5036269;28;19921;-79
2021/12/21 13:42:06;;;;;;;;;;;11.20;62.70;;;;;;5025412;28;19967;-79
2021/12/21 13:44:34;;;;;;;;;;;11.20;62.30;;;;;;5036846;28;20005;-80
2021/12/21 13:47:01;;;;;;;;;;;11.10;63.80;;;;;;5034775;28;19955;-80
2021/12/21 13:49:26;;;;;;;;;;;11.10;64.00;;;;;;5034484;28;19909;-80
2021/12/21 13:52:13;;;;;;;;;;;11.10;64.50;;;;;;5037290;28;19905;-80
2021/12/21 13:54:38;;;;;;;;;;;11.10;64.10;;;;;;5039631;28;19909;-80
2021/12/21 13:57:04;;;;;;;;;;;11.00;63.80;;;;;;5039154;28;19916;-81
2021/12/21 13:59:35;;;;;;;;;;;10.70;64.50;;;;;;5036833;28;19947;-80
2021/12/21 14:02:07;;;;;;;;;;;10.60;63.90;;;;;;5039607;28;20284;-79
2021/12/21 14:04:39;;;;;;;;;;;10.40;64.20;;;;;;5036130;28;19913;-79
2021/12/21 14:07:05;;;;;;;;;;;10.20;63.80;;;;;;5038046;28;19909;-79
2021/12/21 14:09:31;;;;;;;;;;;10.00;64.70;;;;;;5038887;28;19912;-79
2021/12/21 14:11:57;;;;;;;;;;;9.80;64.00;;;;;;5038529;28;19916;-80
2021/12/21 14:14:23;;;;;;;;;;;9.60;64.80;;;;;;5029401;28;19909;-80
2021/12/21 14:16:53;;;;;;;;;;;9.40;65.70;;;;;;5038563;28;19916;-80
2021/12/21 14:19:21;;;;;;;;;;;9.10;66.30;;;;;;5035600;28;19949;-80
2021/12/21 14:21:47;;;;;;;;;;;9.00;66.90;;;;;;5033226;28;20424;-78
2021/12/21 14:24:15;;;;;;;;;;;8.90;66.80;;;;;;5030053;28;20390;-77
2021/12/21 14:26:48;;;;;;;;;;;8.80;67.20;;;;;;5034905;28;19948;-77
2021/12/21 14:29:15;;;;;;;;;;;8.60;67.40;;;;;;5039950;28;19916;-77
2021/12/21 14:31:47;;;;;;;;;;;8.50;67.50;;;;;;5040522;28;19955;-76
2021/12/21 14:34:18;;;;;;;;;;;8.50;67.80;;;;;;5039569;28;19909;-77
2021/12/21 14:36:44;;;;;;;;;;;8.40;67.90;;;;;;5039991;28;20315;-77
2021/12/21 14:39:11;;;;;;;;;;;8.30;68.20;;;;;;5038973;28;19913;-77
2021/12/21 14:41:39;;;;;;;;;;;8.20;68.80;;;;;;5036823;28;19960;-77
2021/12/21 14:44:07;;;;;;;;;;;8.10;69.30;;;;;;5039123;28;19909;-77
2021/12/21 14:46:34;;;;;;;;;;;8.00;69.30;;;;;;5038942;28;19921;-77
2021/12/21 14:49:06;;;;;;;;;;;8.00;69.50;;;;;;5037005;28;19905;-76
2021/12/21 14:51:51;;;;;;;;;;;7.90;69.60;;;;;;5039887;28;19909;-76
2021/12/21 14:54:50;;;;;;;;;;;7.80;69.80;;;;;;5039664;28;20380;-77
2021/12/21 14:57:06;;;;;;;;;;;7.80;70.30;;;;;;5037283;28;19905;-77
2021/12/21 14:59:34;;;;;;;;;;;7.70;70.50;;;;;;5039423;28;19917;-77
2021/12/21 15:02:05;;;;;;;;;;;7.60;70.80;;;;;;5039732;28;19905;-76
2021/12/21 15:04:32;;;;;;;;;;;7.60;71.10;;;;;;5039154;28;19905;-77
2021/12/21 15:06:58;;;;;;;;;;;7.50;71.10;;;;;;5038888;28;19967;-77
2021/12/21 15:09:24;;;;;;;;;;;7.50;71.40;;;;;;5039015;28;19913;-77
2021/12/21 15:11:51;;;;;;;;;;;7.40;71.50;;;;;;5039301;28;20265;-77
2021/12/21 15:14:17;;;;;;;;;;;7.40;71.70;;;;;;5036034;28;19916;-77
2021/12/21 15:16:44;;;;;;;;;;;7.30;72.20;;;;;;5039594;28;19957;-76
2021/12/21 15:19:09;;;;;;;;;;;7.20;72.40;;;;;;5038756;28;20390;-75
2021/12/21 15:21:35;;;;;;;;;;;7.10;72.60;;;;;;5039502;28;19905;-77
2021/12/21 15:24:01;;;;;;;;;;;7.10;72.80;;;;;;5038862;28;19905;-77
2021/12/21 15:26:28;;;;;;;;;;;7.00;73.10;;;;;;5039054;28;19909;-76
2021/12/21 15:28:53;;;;;;;;;;;7.00;73.10;;;;;;5038989;28;19912;-76
2021/12/21 15:31:19;;;;;;;;;;;6.90;73.30;;;;;;5039002;28;20288;-77
2021/12/21 15:33:45;;;;;;;;;;;6.80;73.50;;;;;;5038714;28;19920;-76
2021/12/21 15:36:10;;;;;;;;;;;6.80;73.50;;;;;;5042996;28;19967;-77
2021/12/21 15:38:36;;;;;;;;;;;6.70;73.70;;;;;;5038627;28;19913;-77